createdAt,value
2023-02-26T00:01:30.284Z,1.60
2023-02-26T00:03:59.947Z,1.75
2023-02-26T00:06:28.098Z,1.60
2023-02-26T00:08:55.775Z,1.40
2023-02-26T00:11:23.147Z,1.30
2023-02-26T00:13:50.957Z,1.58
2023-02-26T00:16:29.856Z,1.63
2023-02-26T00:18:59.563Z,1.85
2023-02-26T00:21:27.872Z,1.80
2023-02-26T00:23:58.594Z,1.50
2023-02-26T00:26:27.280Z,1.70
2023-02-26T00:28:58.073Z,1.60
2023-02-26T00:31:25.566Z,1.30
2023-02-26T00:33:54.267Z,1.10
2023-02-26T00:36:37.582Z,1.07
2023-02-26T00:39:31.953Z,3.83
2023-02-26T00:41:59.384Z,2.50
2023-02-26T00:44:26.760Z,2.40
2023-02-26T00:47:18.198Z,2.05
2023-02-26T00:50:23.698Z,2.75
2023-02-26T00:53:01.643Z,2.50
2023-02-26T00:55:29.632Z,2.70
2023-02-26T00:57:56.833Z,2.90
2023-02-26T01:00:24.057Z,2.65
2023-02-26T01:02:51.473Z,2.42
2023-02-26T01:05:19.074Z,2.53
2023-02-26T01:08:13.601Z,2.08
2023-02-26T01:10:41.398Z,2.63
2023-02-26T01:13:08.904Z,2.30
2023-02-26T01:15:36.285Z,1.95
2023-02-26T01:18:20.621Z,1.80
2023-02-26T01:21:02.709Z,2.05
2023-02-26T01:23:35.139Z,1.50
2023-02-26T01:26:20.108Z,1.30
2023-02-26T01:28:47.458Z,1.23
2023-02-26T01:31:33.277Z,1.50
2023-02-26T01:34:09.116Z,1.17
2023-02-26T01:36:44.932Z,1.50
2023-02-26T01:39:30.861Z,1.48
2023-02-26T01:42:15.590Z,1.20
2023-02-26T01:45:00.988Z,1.30
2023-02-26T01:47:39.311Z,1.40
2023-02-26T01:50:17.066Z,1.35
2023-02-26T01:52:50.070Z,1.00
2023-02-26T01:55:21.930Z,0.88
2023-02-26T01:57:51.975Z,0.90
2023-02-26T02:00:19.566Z,0.75
2023-02-26T02:02:47.014Z,0.90
2023-02-26T02:05:22.560Z,0.80
2023-02-26T02:07:50.297Z,0.70
2023-02-26T02:10:17.901Z,0.90
2023-02-26T02:12:52.254Z,0.82
2023-02-26T02:15:43.292Z,0.90
2023-02-26T02:18:24.199Z,1.13
2023-02-26T02:21:06.763Z,1.47
2023-02-26T02:23:47.607Z,0.90
2023-02-26T02:26:50.922Z,1.15
2023-02-26T02:29:39.871Z,1.00
2023-02-26T02:32:11.420Z,1.02
2023-02-26T02:34:54.782Z,1.33
2023-02-26T02:37:37.622Z,0.70
2023-02-26T02:40:16.195Z,0.60
2023-02-26T02:42:48.735Z,0.90
2023-02-26T02:45:51.067Z,0.82
2023-02-26T02:48:21.523Z,1.58
2023-02-26T02:51:10.214Z,1.50
2023-02-26T02:54:01.495Z,2.05
2023-02-26T02:56:48.821Z,1.42
2023-02-26T02:59:42.310Z,1.10
2023-02-26T03:02:34.600Z,1.73
2023-02-26T03:05:01.839Z,0.77
2023-02-26T03:07:33.161Z,0.80
2023-02-26T03:10:00.420Z,0.65
2023-02-26T03:12:32.430Z,0.60
2023-02-26T03:15:00.889Z,0.70
2023-02-26T03:17:41.844Z,0.70
2023-02-26T03:20:31.702Z,0.50
2023-02-26T03:23:11.751Z,0.60
2023-02-26T03:25:49.291Z,0.60
2023-02-26T03:28:31.223Z,0.70
2023-02-26T03:31:21.447Z,0.60
2023-02-26T03:34:17.927Z,1.80
2023-02-26T03:36:56.103Z,0.80
2023-02-26T03:39:31.480Z,0.70
2023-02-26T03:42:08.398Z,0.83
2023-02-26T03:44:44.858Z,0.90
2023-02-26T03:47:15.310Z,1.00
2023-02-26T03:49:51.896Z,0.90
2023-02-26T03:52:22.306Z,1.00
2023-02-26T03:54:56.280Z,0.85
2023-02-26T03:57:24.064Z,0.90
2023-02-26T03:59:51.462Z,0.70
2023-02-26T04:02:33.239Z,0.60
2023-02-26T04:05:19.419Z,0.40
2023-02-26T04:07:48.384Z,0.65
2023-02-26T04:10:19.289Z,0.60
2023-02-26T04:12:46.365Z,0.50
2023-02-26T04:15:13.589Z,0.52
2023-02-26T04:17:40.659Z,0.50
2023-02-26T04:20:09.873Z,0.60
2023-02-26T04:22:37.313Z,0.70
2023-02-26T04:25:05.070Z,0.60
2023-02-26T04:27:32.163Z,0.50
2023-02-26T04:29:59.216Z,0.60
2023-02-26T04:32:26.428Z,0.60
2023-02-26T04:34:53.862Z,0.60
2023-02-26T04:37:20.916Z,1.60
2023-02-26T04:39:47.994Z,0.80
2023-02-26T04:42:15.077Z,1.10
2023-02-26T04:44:42.161Z,1.10
2023-02-26T04:47:09.309Z,0.85
2023-02-26T04:49:36.415Z,1.10
2023-02-26T04:52:03.545Z,1.10
2023-02-26T04:54:30.660Z,0.80
2023-02-26T04:56:57.914Z,0.93
2023-02-26T04:59:25.062Z,0.77
2023-02-26T05:01:52.191Z,0.68
2023-02-26T05:04:19.574Z,0.60
2023-02-26T05:06:46.650Z,0.88
2023-02-26T05:09:13.790Z,0.60
2023-02-26T05:11:40.879Z,0.70
2023-02-26T05:14:08.022Z,0.50
2023-02-26T05:16:35.482Z,0.70
2023-02-26T05:19:02.673Z,0.65
2023-02-26T05:21:29.794Z,0.57
2023-02-26T05:23:57.110Z,0.40
2023-02-26T05:26:24.936Z,0.63
2023-02-26T05:28:52.451Z,0.50
2023-02-26T05:31:19.644Z,1.20
2023-02-26T05:33:46.783Z,0.75
2023-02-26T05:36:13.925Z,0.68
2023-02-26T05:38:41.168Z,0.50
2023-02-26T05:41:08.285Z,0.60
2023-02-26T05:43:35.890Z,0.40
2023-02-26T05:46:03.078Z,0.43
2023-02-26T05:48:30.235Z,0.50
2023-02-26T05:50:57.481Z,1.00
2023-02-26T05:53:24.595Z,0.90
2023-02-26T05:55:53.470Z,0.60
2023-02-26T05:58:20.675Z,0.60
2023-02-26T06:00:47.950Z,0.90
2023-02-26T06:03:15.408Z,0.90
2023-02-26T06:05:42.466Z,0.77
2023-02-26T06:08:11.984Z,0.65
2023-02-26T06:10:39.127Z,1.08
2023-02-26T06:13:06.200Z,0.70
2023-02-26T06:15:33.237Z,0.80
2023-02-26T06:18:00.457Z,0.90
2023-02-26T06:20:27.978Z,0.90
2023-02-26T06:22:55.057Z,0.70
2023-02-26T06:25:22.111Z,0.80
2023-02-26T06:27:49.232Z,0.70
2023-02-26T06:30:18.099Z,0.60
2023-02-26T06:32:45.516Z,0.50
2023-02-26T06:35:12.603Z,0.80
2023-02-26T06:37:39.676Z,0.60
2023-02-26T06:40:07.787Z,0.40
2023-02-26T06:42:34.863Z,0.40
2023-02-26T06:45:02.152Z,0.73
2023-02-26T06:47:29.301Z,0.52
2023-02-26T06:49:58.212Z,0.30
2023-02-26T06:52:25.480Z,0.40
2023-02-26T06:54:52.585Z,0.40
2023-02-26T06:57:19.638Z,1.50
2023-02-26T06:59:46.716Z,0.90
2023-02-26T07:02:18.267Z,0.75
2023-02-26T07:04:45.344Z,0.80
2023-02-26T07:07:13.312Z,0.63
2023-02-26T07:09:41.033Z,0.50
2023-02-26T07:12:08.240Z,1.00
2023-02-26T07:14:35.849Z,0.90
2023-02-26T07:17:03.188Z,1.30
2023-02-26T07:19:30.370Z,1.60
2023-02-26T07:21:57.569Z,1.00
2023-02-26T07:24:25.414Z,1.00
2023-02-26T07:26:52.857Z,1.10
2023-02-26T07:29:19.978Z,0.90
2023-02-26T07:31:47.187Z,0.90
2023-02-26T07:34:14.814Z,0.93
2023-02-26T07:36:41.953Z,0.90
2023-02-26T07:39:09.077Z,1.58
2023-02-26T07:41:36.146Z,1.20
2023-02-26T07:44:03.394Z,1.60
2023-02-26T07:46:30.489Z,1.40
2023-02-26T07:48:57.571Z,1.20
2023-02-26T07:51:25.130Z,0.98
2023-02-26T07:53:52.436Z,0.90
2023-02-26T07:56:19.480Z,0.70
2023-02-26T07:58:46.527Z,0.80
2023-02-26T08:01:13.694Z,0.80
2023-02-26T08:03:40.831Z,2.20
2023-02-26T08:06:08.380Z,3.00
2023-02-26T08:08:35.523Z,2.95
2023-02-26T08:11:02.751Z,2.50
2023-02-26T08:13:29.836Z,2.50
2023-02-26T08:15:56.940Z,2.10
2023-02-26T08:18:24.169Z,1.33
2023-02-26T08:20:52.536Z,1.33
2023-02-26T08:23:19.903Z,1.00
2023-02-26T08:25:47.055Z,1.03
2023-02-26T08:28:14.182Z,1.00
2023-02-26T08:30:41.268Z,1.13
2023-02-26T08:33:08.473Z,1.30
2023-02-26T08:35:35.547Z,1.40
2023-02-26T08:38:02.590Z,1.10
2023-02-26T08:40:29.663Z,1.38
2023-02-26T08:42:58.466Z,2.50
2023-02-26T08:45:27.075Z,1.98
2023-02-26T08:47:57.301Z,1.80
2023-02-26T08:50:25.762Z,1.58
2023-02-26T08:52:52.922Z,3.10
2023-02-26T08:55:20.080Z,2.90
2023-02-26T08:57:47.130Z,2.38
2023-02-26T09:00:18.476Z,2.80
2023-02-26T09:02:45.908Z,2.50
2023-02-26T09:05:14.273Z,2.08
2023-02-26T09:07:42.554Z,2.10
2023-02-26T09:10:11.061Z,2.10
2023-02-26T09:12:38.163Z,1.45
2023-02-26T09:15:07.271Z,1.50
2023-02-26T09:17:34.575Z,1.30
2023-02-26T09:20:02.109Z,1.48
2023-02-26T09:22:29.155Z,1.25
2023-02-26T09:24:56.249Z,1.85
2023-02-26T09:27:23.454Z,1.63
2023-02-26T09:29:50.515Z,1.48
2023-02-26T09:32:17.758Z,1.77
2023-02-26T09:34:44.865Z,1.50
2023-02-26T09:37:11.981Z,1.63
2023-02-26T09:39:39.183Z,1.50
2023-02-26T09:42:40.490Z,1.60
2023-02-26T09:45:19.468Z,1.42
2023-02-26T09:47:51.734Z,1.27
2023-02-26T09:50:26.345Z,1.05
2023-02-26T09:53:11.042Z,0.93
2023-02-26T09:55:43.575Z,0.90
2023-02-26T09:58:21.726Z,1.00
2023-02-26T10:01:12.463Z,0.80
2023-02-26T10:04:18.830Z,0.97
2023-02-26T10:07:26.796Z,0.70
2023-02-26T10:09:58.489Z,0.90
2023-02-26T10:12:28.269Z,0.90
2023-02-26T10:14:55.476Z,0.90
2023-02-26T10:17:52.375Z,0.80
2023-02-26T10:20:25.990Z,1.08
2023-02-26T10:23:11.919Z,1.50
2023-02-26T10:25:43.724Z,1.13
2023-02-26T10:28:39.526Z,1.33
2023-02-26T10:31:13.207Z,1.45
2023-02-26T10:33:50.300Z,1.23
2023-02-26T10:36:33.176Z,1.00
2023-02-26T10:39:15.873Z,0.90
2023-02-26T10:41:43.472Z,0.77
2023-02-26T10:44:20.177Z,0.90
2023-02-26T10:47:03.471Z,0.80
2023-02-26T10:49:52.402Z,0.77
2023-02-26T10:52:23.394Z,0.80
2023-02-26T10:55:12.988Z,0.60
2023-02-26T10:57:44.036Z,0.70
2023-02-26T11:00:19.150Z,0.55
2023-02-26T11:02:49.692Z,0.70
2023-02-26T11:05:23.375Z,0.90
2023-02-26T11:07:55.472Z,0.77
2023-02-26T11:10:26.028Z,2.33
2023-02-26T11:12:53.816Z,2.90
2023-02-26T11:15:25.831Z,2.63
2023-02-26T11:17:58.549Z,2.38
2023-02-26T11:20:32.015Z,2.15
2023-02-26T11:23:02.105Z,1.80
2023-02-26T11:25:34.375Z,1.55
2023-02-26T11:28:06.273Z,1.70
2023-02-26T11:30:37.723Z,1.77
2023-02-26T11:33:16.898Z,1.77
2023-02-26T11:35:46.051Z,1.40
2023-02-26T11:38:20.216Z,1.03
2023-02-26T11:40:52.425Z,1.10
2023-02-26T11:43:21.590Z,1.00
2023-02-26T11:45:54.658Z,0.93
2023-02-26T11:48:53.393Z,0.90
2023-02-26T11:51:25.631Z,0.70
2023-02-26T11:53:55.753Z,0.85
2023-02-26T11:56:36.544Z,0.85
2023-02-26T11:59:28.159Z,0.90
2023-02-26T12:01:55.265Z,1.00
2023-02-26T12:04:27.608Z,1.48
2023-02-26T12:06:55.971Z,1.20
2023-02-26T12:09:25.994Z,1.15
2023-02-26T12:12:06.494Z,1.30
2023-02-26T12:15:01.236Z,1.40
2023-02-26T12:17:57.257Z,1.60
2023-02-26T12:20:47.623Z,1.27
2023-02-26T12:23:39.886Z,1.17
2023-02-26T12:26:31.917Z,1.63
2023-02-26T12:29:19.210Z,1.20
2023-02-26T12:31:53.050Z,1.00
2023-02-26T12:34:32.290Z,1.02
2023-02-26T12:37:21.278Z,1.90
2023-02-26T12:40:04.874Z,2.00
2023-02-26T12:42:53.168Z,1.30
2023-02-26T12:45:35.603Z,1.50
2023-02-26T12:48:24.400Z,1.30
2023-02-26T12:51:22.333Z,1.63
2023-02-26T12:54:10.559Z,1.50
2023-02-26T12:57:13.106Z,1.63
2023-02-26T12:59:59.218Z,5.25
2023-02-26T13:03:03.826Z,4.55
2023-02-26T13:05:52.201Z,3.42
2023-02-26T13:08:33.310Z,2.90
2023-02-26T13:11:10.714Z,2.80
2023-02-26T13:14:03.536Z,2.30
2023-02-26T13:16:56.539Z,2.38
2023-02-26T13:19:28.640Z,2.03
2023-02-26T13:22:04.975Z,2.55
2023-02-26T13:24:39.743Z,2.30
2023-02-26T13:27:09.723Z,1.63
2023-02-26T13:29:44.154Z,2.85
2023-02-26T13:32:19.465Z,2.70
2023-02-26T13:35:00.288Z,3.38
2023-02-26T13:37:42.240Z,3.08
2023-02-26T13:40:39.887Z,2.43
2023-02-26T13:43:50.319Z,1.42
2023-02-26T13:46:36.903Z,2.03
2023-02-26T13:49:28.790Z,3.20
2023-02-26T13:51:57.378Z,1.88
2023-02-26T13:54:29.752Z,2.40
2023-02-26T13:57:25.707Z,3.13
2023-02-26T14:00:14.882Z,2.60
2023-02-26T14:03:12.063Z,2.80
2023-02-26T14:05:48.121Z,4.10
2023-02-26T14:08:18.546Z,5.32
2023-02-26T14:10:49.777Z,3.15
2023-02-26T14:13:38.937Z,3.10
2023-02-26T14:16:21.362Z,3.17
2023-02-26T14:18:48.622Z,2.95
2023-02-26T14:21:28.321Z,1.77
2023-02-26T14:24:00.102Z,2.72
2023-02-26T14:26:31.629Z,1.98
2023-02-26T14:29:14.853Z,6.32
2023-02-26T14:31:51.180Z,2.53
2023-02-26T14:34:24.847Z,2.88
2023-02-26T14:36:56.061Z,2.58
2023-02-26T14:39:45.306Z,2.33
2023-02-26T14:42:22.284Z,1.83
2023-02-26T14:45:14.443Z,2.00
2023-02-26T14:47:41.849Z,2.63
2023-02-26T14:50:15.784Z,2.42
2023-02-26T14:52:59.018Z,1.83
2023-02-26T14:55:52.924Z,3.63
2023-02-26T14:58:44.133Z,2.58
2023-02-26T15:01:50.697Z,2.40
2023-02-26T15:04:42.973Z,2.53
2023-02-26T15:07:12.997Z,1.60
2023-02-26T15:10:13.901Z,2.00
2023-02-26T15:13:01.691Z,1.80
2023-02-26T15:15:36.815Z,1.50
2023-02-26T15:18:26.735Z,2.55
2023-02-26T15:20:53.746Z,1.30
2023-02-26T15:23:38.055Z,1.88
2023-02-26T15:26:06.794Z,1.63
2023-02-26T15:28:39.975Z,1.30
2023-02-26T15:31:11.764Z,1.65
2023-02-26T15:33:40.537Z,1.10
2023-02-26T15:36:14.161Z,1.00
2023-02-26T15:38:43.878Z,1.00
2023-02-26T15:41:12.486Z,0.87
2023-02-26T15:43:44.283Z,0.70
2023-02-26T15:46:11.600Z,0.80
2023-02-26T15:48:42.200Z,0.80
2023-02-26T15:51:12.625Z,0.70
2023-02-26T15:53:48.853Z,0.60
2023-02-26T15:56:21.933Z,0.50
2023-02-26T15:59:10.696Z,0.70
2023-02-26T16:01:40.810Z,0.50
2023-02-26T16:04:16.019Z,0.50
2023-02-26T16:06:48.155Z,0.53
2023-02-26T16:09:18.779Z,0.40
2023-02-26T16:11:47.347Z,0.63
2023-02-26T16:14:21.643Z,0.40
2023-02-26T16:16:51.769Z,0.40
2023-02-26T16:19:23.574Z,0.40
2023-02-26T16:21:54.203Z,0.30
2023-02-26T16:24:23.052Z,0.50
2023-02-26T16:26:57.548Z,1.13
2023-02-26T16:29:28.281Z,0.80
2023-02-26T16:31:58.372Z,0.80
2023-02-26T16:34:45.494Z,0.90
2023-02-26T16:37:32.026Z,1.03
2023-02-26T16:40:10.794Z,0.88
2023-02-26T16:42:37.870Z,0.38
2023-02-26T16:45:35.311Z,0.45
2023-02-26T16:48:16.803Z,1.10
2023-02-26T16:50:44.116Z,1.00
2023-02-26T16:53:17.582Z,1.23
2023-02-26T16:55:53.522Z,0.60
2023-02-26T16:58:22.835Z,0.47
2023-02-26T17:00:59.883Z,1.02
2023-02-26T17:03:28.980Z,0.80
2023-02-26T17:06:05.034Z,3.17
2023-02-26T17:08:42.414Z,2.17
2023-02-26T17:11:21.700Z,4.47
2023-02-26T17:14:04.248Z,4.90
2023-02-26T17:16:31.388Z,3.75
2023-02-26T17:18:58.685Z,3.30
2023-02-26T17:21:26.015Z,3.53
2023-02-26T17:23:53.487Z,3.47
2023-02-26T17:26:20.960Z,3.30
2023-02-26T17:28:48.167Z,2.57
2023-02-26T17:31:15.409Z,2.58
2023-02-26T17:33:44.363Z,2.53
2023-02-26T17:36:15.807Z,2.08
2023-02-26T17:38:46.897Z,2.10
2023-02-26T17:41:18.834Z,2.40
2023-02-26T17:43:46.002Z,1.98
2023-02-26T17:46:13.453Z,1.88
2023-02-26T17:48:41.117Z,1.92
2023-02-26T17:51:09.502Z,1.52
2023-02-26T17:53:40.890Z,1.80
2023-02-26T17:56:27.024Z,1.65
2023-02-26T17:58:55.550Z,1.70
2023-02-26T18:01:29.877Z,2.00
2023-02-26T18:03:57.822Z,2.03
2023-02-26T18:06:25.284Z,1.70
2023-02-26T18:08:54.115Z,2.00
2023-02-26T18:11:23.714Z,2.00
2023-02-26T18:13:52.148Z,1.80
2023-02-26T18:16:28.584Z,1.83
2023-02-26T18:18:55.639Z,1.65
2023-02-26T18:21:22.684Z,1.40
2023-02-26T18:23:49.799Z,1.70
2023-02-26T18:26:19.710Z,1.47
2023-02-26T18:28:46.773Z,1.00
2023-02-26T18:31:14.120Z,1.30
2023-02-26T18:33:43.907Z,1.33
2023-02-26T18:36:18.010Z,1.30
2023-02-26T18:38:45.220Z,1.20
2023-02-26T18:41:12.298Z,0.90
2023-02-26T18:43:39.390Z,0.90
2023-02-26T18:46:07.129Z,0.90
2023-02-26T18:48:34.248Z,0.83
2023-02-26T18:51:01.311Z,0.93
2023-02-26T18:53:28.545Z,0.70
2023-02-26T18:55:56.902Z,0.90
2023-02-26T18:58:24.017Z,0.90
2023-02-26T19:00:51.735Z,1.00
2023-02-26T19:03:19.081Z,1.10
2023-02-26T19:05:46.293Z,1.10
2023-02-26T19:08:13.674Z,0.70
2023-02-26T19:10:41.868Z,0.80
2023-02-26T19:13:08.923Z,0.90
2023-02-26T19:15:36.040Z,0.77
2023-02-26T19:18:03.227Z,1.08
2023-02-26T19:20:30.291Z,0.93
2023-02-26T19:22:57.344Z,1.05
2023-02-26T19:25:26.872Z,0.80
2023-02-26T19:27:54.780Z,1.10
2023-02-26T19:30:23.182Z,0.93
2023-02-26T19:32:51.521Z,0.70
2023-02-26T19:35:19.447Z,1.05
2023-02-26T19:37:46.673Z,0.70
2023-02-26T19:40:19.388Z,1.00
2023-02-26T19:42:47.411Z,0.90
2023-02-26T19:45:15.409Z,1.05
2023-02-26T19:47:42.978Z,0.80
2023-02-26T19:50:11.056Z,0.80
2023-02-26T19:52:38.249Z,0.60
2023-02-26T19:55:07.006Z,0.60
2023-02-26T19:57:34.518Z,0.60
2023-02-26T20:00:03.130Z,0.47
2023-02-26T20:02:30.314Z,0.50
2023-02-26T20:04:57.514Z,0.50
2023-02-26T20:07:25.568Z,0.60
2023-02-26T20:09:52.659Z,0.60
2023-02-26T20:12:19.898Z,0.50
2023-02-26T20:14:46.988Z,0.40
2023-02-26T20:17:14.112Z,0.50
2023-02-26T20:19:41.176Z,0.50
2023-02-26T20:22:08.231Z,0.57
2023-02-26T20:24:35.379Z,0.40
2023-02-26T20:27:02.435Z,0.40
2023-02-26T20:29:29.607Z,0.40
2023-02-26T20:31:58.890Z,0.40
2023-02-26T20:34:26.137Z,0.52
2023-02-26T20:36:55.503Z,0.80
2023-02-26T20:39:23.495Z,1.00
2023-02-26T20:41:50.753Z,1.15
2023-02-26T20:44:17.902Z,1.38
2023-02-26T20:46:45.333Z,1.40
2023-02-26T20:49:12.739Z,1.92
2023-02-26T20:51:41.326Z,1.10
2023-02-26T20:54:17.632Z,1.40
2023-02-26T20:56:45.146Z,2.13
2023-02-26T20:59:12.205Z,2.13
2023-02-26T21:01:39.314Z,1.98
2023-02-26T21:04:08.554Z,1.40
2023-02-26T21:06:36.546Z,2.42
2023-02-26T21:09:05.155Z,1.90
2023-02-26T21:11:34.573Z,1.15
2023-02-26T21:14:04.895Z,1.25
2023-02-26T21:16:32.139Z,1.10
2023-02-26T21:19:03.678Z,1.27
2023-02-26T21:21:31.245Z,1.00
2023-02-26T21:23:58.529Z,0.82
2023-02-26T21:26:27.261Z,0.80
2023-02-26T21:28:54.443Z,0.80
2023-02-26T21:31:21.918Z,0.75
2023-02-26T21:33:49.335Z,0.90
2023-02-26T21:36:16.767Z,0.60
2023-02-26T21:38:44.175Z,0.63
2023-02-26T21:41:11.479Z,0.60
2023-02-26T21:43:39.108Z,0.60
2023-02-26T21:46:06.578Z,0.50
2023-02-26T21:48:33.799Z,0.40
2023-02-26T21:51:01.203Z,0.60
2023-02-26T21:53:28.383Z,0.40
2023-02-26T21:55:56.692Z,1.10
2023-02-26T21:58:25.315Z,1.38
2023-02-26T22:00:52.422Z,1.25
2023-02-26T22:03:19.542Z,1.30
2023-02-26T22:05:49.453Z,1.30
2023-02-26T22:08:16.512Z,1.10
2023-02-26T22:10:45.470Z,1.52
2023-02-26T22:13:12.882Z,1.45
2023-02-26T22:15:40.385Z,1.30
2023-02-26T22:18:07.505Z,1.42
2023-02-26T22:20:34.650Z,1.38
2023-02-26T22:23:02.441Z,1.33
2023-02-26T22:25:29.521Z,1.15
2023-02-26T22:27:57.111Z,3.97
2023-02-26T22:30:24.497Z,3.30
2023-02-26T22:32:51.652Z,2.23
2023-02-26T22:35:18.840Z,3.42
2023-02-26T22:37:45.957Z,2.30
2023-02-26T22:40:14.091Z,2.10
2023-02-26T22:42:42.451Z,2.30
2023-02-26T22:45:12.316Z,2.90
2023-02-26T22:47:39.695Z,2.90
2023-02-26T22:50:07.408Z,2.60
2023-02-26T22:52:34.510Z,2.13
2023-02-26T22:55:01.635Z,2.75
2023-02-26T22:57:28.842Z,2.78
2023-02-26T22:59:55.909Z,2.20
2023-02-26T23:02:22.971Z,2.30
2023-02-26T23:04:50.049Z,1.80
2023-02-26T23:07:17.427Z,1.80
2023-02-26T23:09:44.582Z,1.58
2023-02-26T23:12:11.673Z,1.65
2023-02-26T23:14:38.824Z,1.80
2023-02-26T23:17:05.890Z,1.20
2023-02-26T23:19:32.931Z,1.40
2023-02-26T23:22:00.095Z,1.33
2023-02-26T23:24:27.221Z,1.30
2023-02-26T23:26:54.281Z,1.50
2023-02-26T23:29:21.445Z,1.42
2023-02-26T23:31:48.746Z,1.20
2023-02-26T23:34:15.933Z,1.07
2023-02-26T23:36:43.015Z,1.20
2023-02-26T23:39:10.523Z,0.90
2023-02-26T23:41:37.597Z,1.40
2023-02-26T23:44:04.769Z,1.45
2023-02-26T23:46:31.850Z,1.48
2023-02-26T23:48:58.924Z,1.10
2023-02-26T23:51:26.756Z,0.95
2023-02-26T23:53:53.997Z,0.90
2023-02-26T23:56:21.070Z,0.98
2023-02-26T23:58:48.176Z,1.00
